sensor_id;sensor_type;location;lat;lon;timestamp;P1;durP1;ratioP1;P2;durP2;ratioP2
75506;SDS011;64086;43.220;27.878;2024-02-14T00:02:16;6.72;;;5.45;;
75506;SDS011;64086;43.220;27.878;2024-02-14T00:04:42;7.32;;;6.10;;
75506;SDS011;64086;43.220;27.878;2024-02-14T00:07:07;6.25;;;5.65;;
75506;SDS011;64086;43.220;27.878;2024-02-14T00:09:33;8.10;;;6.22;;
75506;SDS011;64086;43.220;27.878;2024-02-14T00:11:58;6.68;;;5.85;;
75506;SDS011;64086;43.220;27.878;2024-02-14T00:14:24;6.45;;;5.75;;
75506;SDS011;64086;43.220;27.878;2024-02-14T00:16:49;7.15;;;6.30;;
75506;SDS011;64086;43.220;27.878;2024-02-14T00:19:16;7.63;;;5.70;;
75506;SDS011;64086;43.220;27.878;2024-02-14T00:21:41;5.93;;;5.32;;
75506;SDS011;64086;43.220;27.878;2024-02-14T00:24:07;6.18;;;5.47;;
75506;SDS011;64086;43.220;27.878;2024-02-14T00:26:32;7.65;;;6.00;;
75506;SDS011;64086;43.220;27.878;2024-02-14T00:28:58;8.10;;;6.65;;
75506;SDS011;64086;43.220;27.878;2024-02-14T00:31:24;7.70;;;6.53;;
75506;SDS011;64086;43.220;27.878;2024-02-14T00:33:49;7.63;;;6.32;;
75506;SDS011;64086;43.220;27.878;2024-02-14T00:36:16;8.30;;;6.80;;
75506;SDS011;64086;43.220;27.878;2024-02-14T00:38:41;7.70;;;6.90;;
75506;SDS011;64086;43.220;27.878;2024-02-14T00:41:07;9.05;;;6.78;;
75506;SDS011;64086;43.220;27.878;2024-02-14T00:43:32;8.07;;;6.63;;
75506;SDS011;64086;43.220;27.878;2024-02-14T00:45:58;9.98;;;6.90;;
75506;SDS011;64086;43.220;27.878;2024-02-14T00:48:23;9.77;;;7.13;;
75506;SDS011;64086;43.220;27.878;2024-02-14T00:50:49;10.65;;;7.43;;
75506;SDS011;64086;43.220;27.878;2024-02-14T00:53:14;9.63;;;7.18;;
75506;SDS011;64086;43.220;27.878;2024-02-14T00:55:39;8.35;;;7.25;;
75506;SDS011;64086;43.220;27.878;2024-02-14T00:58:05;9.82;;;6.68;;
75506;SDS011;64086;43.220;27.878;2024-02-14T01:00:31;8.88;;;7.00;;
75506;SDS011;64086;43.220;27.878;2024-02-14T01:02:57;8.00;;;6.88;;
75506;SDS011;64086;43.220;27.878;2024-02-14T01:05:23;8.55;;;7.03;;
75506;SDS011;64086;43.220;27.878;2024-02-14T01:07:49;9.70;;;6.97;;
75506;SDS011;64086;43.220;27.878;2024-02-14T01:10:14;8.38;;;6.85;;
75506;SDS011;64086;43.220;27.878;2024-02-14T01:12:40;8.88;;;7.32;;
75506;SDS011;64086;43.220;27.878;2024-02-14T01:15:05;9.27;;;6.95;;
75506;SDS011;64086;43.220;27.878;2024-02-14T01:17:31;9.27;;;7.75;;
75506;SDS011;64086;43.220;27.878;2024-02-14T01:19:57;8.73;;;6.88;;
75506;SDS011;64086;43.220;27.878;2024-02-14T01:22:23;9.32;;;7.05;;
75506;SDS011;64086;43.220;27.878;2024-02-14T01:24:49;7.93;;;6.65;;
75506;SDS011;64086;43.220;27.878;2024-02-14T01:27:15;8.57;;;7.20;;
75506;SDS011;64086;43.220;27.878;2024-02-14T01:29:41;9.30;;;7.10;;
75506;SDS011;64086;43.220;27.878;2024-02-14T01:32:07;9.30;;;7.38;;
75506;SDS011;64086;43.220;27.878;2024-02-14T01:34:34;9.23;;;6.97;;
75506;SDS011;64086;43.220;27.878;2024-02-14T01:37:00;9.18;;;7.25;;
75506;SDS011;64086;43.220;27.878;2024-02-14T01:39:25;8.98;;;6.65;;
75506;SDS011;64086;43.220;27.878;2024-02-14T01:41:51;10.13;;;7.10;;
75506;SDS011;64086;43.220;27.878;2024-02-14T01:44:16;8.95;;;6.93;;
75506;SDS011;64086;43.220;27.878;2024-02-14T01:46:43;8.65;;;6.65;;
75506;SDS011;64086;43.220;27.878;2024-02-14T01:49:09;10.88;;;7.57;;
75506;SDS011;64086;43.220;27.878;2024-02-14T01:51:37;8.70;;;7.53;;
75506;SDS011;64086;43.220;27.878;2024-02-14T01:54:03;8.75;;;7.60;;
75506;SDS011;64086;43.220;27.878;2024-02-14T01:56:29;8.68;;;7.20;;
75506;SDS011;64086;43.220;27.878;2024-02-14T01:58:56;9.80;;;7.90;;
75506;SDS011;64086;43.220;27.878;2024-02-14T02:01:22;8.57;;;6.97;;
75506;SDS011;64086;43.220;27.878;2024-02-14T02:03:49;11.43;;;7.82;;
75506;SDS011;64086;43.220;27.878;2024-02-14T02:06:14;8.70;;;7.55;;
75506;SDS011;64086;43.220;27.878;2024-02-14T02:08:44;9.05;;;7.25;;
75506;SDS011;64086;43.220;27.878;2024-02-14T02:11:10;9.90;;;7.70;;
75506;SDS011;64086;43.220;27.878;2024-02-14T02:13:35;8.55;;;7.20;;
75506;SDS011;64086;43.220;27.878;2024-02-14T02:16:04;9.32;;;7.38;;
75506;SDS011;64086;43.220;27.878;2024-02-14T02:18:31;8.00;;;6.57;;
75506;SDS011;64086;43.220;27.878;2024-02-14T02:20:57;9.55;;;6.95;;
75506;SDS011;64086;43.220;27.878;2024-02-14T02:23:22;8.60;;;6.80;;
75506;SDS011;64086;43.220;27.878;2024-02-14T02:25:48;9.43;;;6.40;;
75506;SDS011;64086;43.220;27.878;2024-02-14T02:28:15;9.20;;;7.10;;
75506;SDS011;64086;43.220;27.878;2024-02-14T02:30:41;7.90;;;7.10;;
75506;SDS011;64086;43.220;27.878;2024-02-14T02:33:06;8.98;;;7.32;;
75506;SDS011;64086;43.220;27.878;2024-02-14T02:35:32;8.10;;;6.75;;
75506;SDS011;64086;43.220;27.878;2024-02-14T02:37:58;8.45;;;6.82;;
75506;SDS011;64086;43.220;27.878;2024-02-14T02:40:24;8.50;;;7.13;;
75506;SDS011;64086;43.220;27.878;2024-02-14T02:42:52;7.30;;;6.38;;
75506;SDS011;64086;43.220;27.878;2024-02-14T02:45:18;9.43;;;7.20;;
75506;SDS011;64086;43.220;27.878;2024-02-14T02:47:43;7.40;;;6.45;;
75506;SDS011;64086;43.220;27.878;2024-02-14T02:50:09;7.15;;;6.18;;
75506;SDS011;64086;43.220;27.878;2024-02-14T02:52:34;8.48;;;6.40;;
75506;SDS011;64086;43.220;27.878;2024-02-14T02:55:00;7.13;;;6.05;;
75506;SDS011;64086;43.220;27.878;2024-02-14T02:57:27;6.10;;;5.50;;
75506;SDS011;64086;43.220;27.878;2024-02-14T02:59:57;5.80;;;5.15;;
75506;SDS011;64086;43.220;27.878;2024-02-14T03:02:23;6.30;;;5.53;;
75506;SDS011;64086;43.220;27.878;2024-02-14T03:04:48;5.70;;;5.07;;
75506;SDS011;64086;43.220;27.878;2024-02-14T03:07:15;6.18;;;5.28;;
75506;SDS011;64086;43.220;27.878;2024-02-14T03:09:41;5.90;;;5.22;;
75506;SDS011;64086;43.220;27.878;2024-02-14T03:12:07;5.90;;;5.10;;
75506;SDS011;64086;43.220;27.878;2024-02-14T03:14:33;6.95;;;5.18;;
75506;SDS011;64086;43.220;27.878;2024-02-14T03:17:03;4.97;;;4.47;;
75506;SDS011;64086;43.220;27.878;2024-02-14T03:19:29;5.90;;;4.80;;
75506;SDS011;64086;43.220;27.878;2024-02-14T03:21:55;5.93;;;4.85;;
75506;SDS011;64086;43.220;27.878;2024-02-14T03:24:21;5.78;;;4.63;;
75506;SDS011;64086;43.220;27.878;2024-02-14T03:26:47;5.68;;;4.85;;
75506;SDS011;64086;43.220;27.878;2024-02-14T03:29:16;5.10;;;4.50;;
75506;SDS011;64086;43.220;27.878;2024-02-14T03:31:42;5.13;;;4.32;;
75506;SDS011;64086;43.220;27.878;2024-02-14T03:34:09;5.50;;;4.50;;
75506;SDS011;64086;43.220;27.878;2024-02-14T03:36:38;5.63;;;4.15;;
75506;SDS011;64086;43.220;27.878;2024-02-14T03:39:04;4.75;;;4.25;;
75506;SDS011;64086;43.220;27.878;2024-02-14T03:41:31;4.60;;;4.10;;
75506;SDS011;64086;43.220;27.878;2024-02-14T03:43:57;4.75;;;4.13;;
75506;SDS011;64086;43.220;27.878;2024-02-14T03:46:28;4.65;;;4.07;;
75506;SDS011;64086;43.220;27.878;2024-02-14T03:48:54;5.10;;;4.47;;
75506;SDS011;64086;43.220;27.878;2024-02-14T03:51:20;5.50;;;4.40;;
75506;SDS011;64086;43.220;27.878;2024-02-14T03:53:46;4.70;;;3.97;;
75506;SDS011;64086;43.220;27.878;2024-02-14T03:56:11;6.07;;;4.43;;
75506;SDS011;64086;43.220;27.878;2024-02-14T03:58:38;4.97;;;3.95;;
75506;SDS011;64086;43.220;27.878;2024-02-14T04:01:04;5.70;;;4.30;;
75506;SDS011;64086;43.220;27.878;2024-02-14T04:03:30;4.70;;;3.80;;
75506;SDS011;64086;43.220;27.878;2024-02-14T04:05:55;5.20;;;4.00;;
75506;SDS011;64086;43.220;27.878;2024-02-14T04:08:21;5.53;;;4.10;;
75506;SDS011;64086;43.220;27.878;2024-02-14T04:10:47;4.93;;;4.15;;
75506;SDS011;64086;43.220;27.878;2024-02-14T04:13:14;5.65;;;4.50;;
75506;SDS011;64086;43.220;27.878;2024-02-14T04:15:40;4.85;;;3.90;;
75506;SDS011;64086;43.220;27.878;2024-02-14T04:18:07;4.95;;;3.70;;
75506;SDS011;64086;43.220;27.878;2024-02-14T04:20:33;6.10;;;4.05;;
75506;SDS011;64086;43.220;27.878;2024-02-14T04:22:59;4.70;;;4.10;;
75506;SDS011;64086;43.220;27.878;2024-02-14T04:25:25;5.75;;;3.58;;
75506;SDS011;64086;43.220;27.878;2024-02-14T04:27:50;5.18;;;4.05;;
75506;SDS011;64086;43.220;27.878;2024-02-14T04:30:16;5.95;;;4.18;;
75506;SDS011;64086;43.220;27.878;2024-02-14T04:32:41;5.20;;;3.90;;
75506;SDS011;64086;43.220;27.878;2024-02-14T04:35:08;6.10;;;4.03;;
75506;SDS011;64086;43.220;27.878;2024-02-14T04:37:34;4.68;;;3.70;;
75506;SDS011;64086;43.220;27.878;2024-02-14T04:40:00;6.50;;;4.30;;
75506;SDS011;64086;43.220;27.878;2024-02-14T04:42:26;4.78;;;3.88;;
75506;SDS011;64086;43.220;27.878;2024-02-14T04:44:51;5.22;;;4.00;;
75506;SDS011;64086;43.220;27.878;2024-02-14T04:47:17;5.25;;;3.72;;
75506;SDS011;64086;43.220;27.878;2024-02-14T04:49:42;5.18;;;3.50;;
75506;SDS011;64086;43.220;27.878;2024-02-14T04:52:08;5.53;;;3.63;;
75506;SDS011;64086;43.220;27.878;2024-02-14T04:54:33;4.97;;;3.28;;
75506;SDS011;64086;43.220;27.878;2024-02-14T04:56:59;6.75;;;3.88;;
75506;SDS011;64086;43.220;27.878;2024-02-14T04:59:24;4.35;;;3.38;;
75506;SDS011;64086;43.220;27.878;2024-02-14T05:01:50;5.55;;;3.85;;
75506;SDS011;64086;43.220;27.878;2024-02-14T05:04:18;5.45;;;3.95;;
75506;SDS011;64086;43.220;27.878;2024-02-14T05:06:43;4.95;;;3.55;;
75506;SDS011;64086;43.220;27.878;2024-02-14T05:09:09;6.28;;;3.55;;
75506;SDS011;64086;43.220;27.878;2024-02-14T05:11:36;5.18;;;3.60;;
75506;SDS011;64086;43.220;27.878;2024-02-14T05:14:02;3.90;;;3.10;;
75506;SDS011;64086;43.220;27.878;2024-02-14T05:16:27;4.00;;;3.35;;
75506;SDS011;64086;43.220;27.878;2024-02-14T05:18:53;5.53;;;3.95;;
75506;SDS011;64086;43.220;27.878;2024-02-14T05:21:21;4.60;;;3.35;;
75506;SDS011;64086;43.220;27.878;2024-02-14T05:23:47;5.55;;;4.35;;
75506;SDS011;64086;43.220;27.878;2024-02-14T05:26:13;7.72;;;4.65;;
75506;SDS011;64086;43.220;27.878;2024-02-14T05:28:38;4.28;;;3.20;;
75506;SDS011;64086;43.220;27.878;2024-02-14T05:31:05;4.47;;;3.15;;
75506;SDS011;64086;43.220;27.878;2024-02-14T05:33:31;4.05;;;3.28;;
75506;SDS011;64086;43.220;27.878;2024-02-14T05:35:57;5.57;;;3.65;;
75506;SDS011;64086;43.220;27.878;2024-02-14T05:38:22;4.32;;;3.30;;
75506;SDS011;64086;43.220;27.878;2024-02-14T05:40:48;5.72;;;3.80;;
75506;SDS011;64086;43.220;27.878;2024-02-14T05:43:14;5.10;;;3.40;;
75506;SDS011;64086;43.220;27.878;2024-02-14T05:45:40;4.72;;;3.83;;
75506;SDS011;64086;43.220;27.878;2024-02-14T05:48:07;6.25;;;4.03;;
75506;SDS011;64086;43.220;27.878;2024-02-14T05:50:32;4.88;;;4.10;;
75506;SDS011;64086;43.220;27.878;2024-02-14T05:52:58;7.70;;;4.63;;
75506;SDS011;64086;43.220;27.878;2024-02-14T05:55:24;5.75;;;4.15;;
75506;SDS011;64086;43.220;27.878;2024-02-14T05:57:50;5.75;;;4.65;;
75506;SDS011;64086;43.220;27.878;2024-02-14T06:00:17;6.78;;;4.63;;
75506;SDS011;64086;43.220;27.878;2024-02-14T06:02:44;5.45;;;4.38;;
75506;SDS011;64086;43.220;27.878;2024-02-14T06:05:10;6.10;;;4.25;;
75506;SDS011;64086;43.220;27.878;2024-02-14T06:07:39;7.43;;;4.75;;
75506;SDS011;64086;43.220;27.878;2024-02-14T06:10:05;8.65;;;5.00;;
75506;SDS011;64086;43.220;27.878;2024-02-14T06:12:32;6.15;;;4.78;;
75506;SDS011;64086;43.220;27.878;2024-02-14T06:14:57;7.88;;;4.68;;
75506;SDS011;64086;43.220;27.878;2024-02-14T06:17:23;5.38;;;4.55;;
75506;SDS011;64086;43.220;27.878;2024-02-14T06:19:48;7.13;;;5.28;;
75506;SDS011;64086;43.220;27.878;2024-02-14T06:22:14;8.15;;;5.15;;
75506;SDS011;64086;43.220;27.878;2024-02-14T06:24:40;8.00;;;4.07;;
75506;SDS011;64086;43.220;27.878;2024-02-14T06:27:06;8.63;;;5.10;;
75506;SDS011;64086;43.220;27.878;2024-02-14T06:29:32;7.10;;;5.20;;
75506;SDS011;64086;43.220;27.878;2024-02-14T06:31:57;7.28;;;5.60;;
75506;SDS011;64086;43.220;27.878;2024-02-14T06:34:23;9.57;;;5.53;;
75506;SDS011;64086;43.220;27.878;2024-02-14T06:36:49;5.60;;;4.78;;
75506;SDS011;64086;43.220;27.878;2024-02-14T06:39:14;7.93;;;5.15;;
75506;SDS011;64086;43.220;27.878;2024-02-14T06:41:40;7.53;;;4.55;;
75506;SDS011;64086;43.220;27.878;2024-02-14T06:44:05;5.72;;;4.97;;
75506;SDS011;64086;43.220;27.878;2024-02-14T06:46:31;6.68;;;4.95;;
75506;SDS011;64086;43.220;27.878;2024-02-14T06:48:57;5.15;;;4.28;;
75506;SDS011;64086;43.220;27.878;2024-02-14T06:51:22;5.28;;;4.78;;
75506;SDS011;64086;43.220;27.878;2024-02-14T06:53:49;6.63;;;4.95;;
75506;SDS011;64086;43.220;27.878;2024-02-14T06:56:15;7.05;;;5.50;;
75506;SDS011;64086;43.220;27.878;2024-02-14T06:58:41;8.15;;;6.57;;
75506;SDS011;64086;43.220;27.878;2024-02-14T07:01:06;8.65;;;6.13;;
75506;SDS011;64086;43.220;27.878;2024-02-14T07:03:32;6.13;;;5.30;;
75506;SDS011;64086;43.220;27.878;2024-02-14T07:05:58;7.10;;;5.47;;
75506;SDS011;64086;43.220;27.878;2024-02-14T07:08:24;5.72;;;4.70;;
75506;SDS011;64086;43.220;27.878;2024-02-14T07:10:52;6.22;;;5.15;;
75506;SDS011;64086;43.220;27.878;2024-02-14T07:13:17;6.40;;;5.13;;
75506;SDS011;64086;43.220;27.878;2024-02-14T07:15:43;5.22;;;4.72;;
75506;SDS011;64086;43.220;27.878;2024-02-14T07:18:08;5.90;;;4.72;;
75506;SDS011;64086;43.220;27.878;2024-02-14T07:20:35;8.05;;;4.97;;
75506;SDS011;64086;43.220;27.878;2024-02-14T07:23:01;7.00;;;5.22;;
75506;SDS011;64086;43.220;27.878;2024-02-14T07:25:26;7.35;;;4.70;;
75506;SDS011;64086;43.220;27.878;2024-02-14T07:27:52;5.30;;;4.15;;
75506;SDS011;64086;43.220;27.878;2024-02-14T07:30:18;5.53;;;4.00;;
75506;SDS011;64086;43.220;27.878;2024-02-14T07:32:44;6.20;;;4.20;;
75506;SDS011;64086;43.220;27.878;2024-02-14T07:35:10;6.80;;;4.40;;
75506;SDS011;64086;43.220;27.878;2024-02-14T07:37:36;5.07;;;4.22;;
75506;SDS011;64086;43.220;27.878;2024-02-14T07:40:02;8.23;;;4.57;;
75506;SDS011;64086;43.220;27.878;2024-02-14T07:42:28;7.05;;;4.97;;
75506;SDS011;64086;43.220;27.878;2024-02-14T07:44:53;4.80;;;3.90;;
75506;SDS011;64086;43.220;27.878;2024-02-14T07:47:21;5.35;;;4.18;;
75506;SDS011;64086;43.220;27.878;2024-02-14T07:49:46;5.30;;;4.15;;
75506;SDS011;64086;43.220;27.878;2024-02-14T07:52:12;8.95;;;4.50;;
75506;SDS011;64086;43.220;27.878;2024-02-14T07:54:37;5.53;;;3.92;;
75506;SDS011;64086;43.220;27.878;2024-02-14T07:57:03;5.80;;;3.95;;
75506;SDS011;64086;43.220;27.878;2024-02-14T07:59:28;7.70;;;4.72;;
75506;SDS011;64086;43.220;27.878;2024-02-14T08:01:54;6.80;;;5.03;;
75506;SDS011;64086;43.220;27.878;2024-02-14T08:04:19;6.60;;;4.63;;
75506;SDS011;64086;43.220;27.878;2024-02-14T08:06:46;4.75;;;3.50;;
75506;SDS011;64086;43.220;27.878;2024-02-14T08:09:14;6.35;;;3.20;;
75506;SDS011;64086;43.220;27.878;2024-02-14T08:11:39;4.75;;;3.30;;
75506;SDS011;64086;43.220;27.878;2024-02-14T08:14:05;4.15;;;2.92;;
75506;SDS011;64086;43.220;27.878;2024-02-14T08:16:30;4.05;;;3.13;;
75506;SDS011;64086;43.220;27.878;2024-02-14T08:18:56;4.15;;;2.90;;
75506;SDS011;64086;43.220;27.878;2024-02-14T08:21:24;4.63;;;3.05;;
75506;SDS011;64086;43.220;27.878;2024-02-14T08:23:51;3.90;;;2.85;;
75506;SDS011;64086;43.220;27.878;2024-02-14T08:26:17;4.32;;;3.30;;
75506;SDS011;64086;43.220;27.878;2024-02-14T08:28:43;4.63;;;2.45;;
75506;SDS011;64086;43.220;27.878;2024-02-14T08:31:11;4.82;;;2.60;;
75506;SDS011;64086;43.220;27.878;2024-02-14T08:33:37;4.85;;;2.95;;
75506;SDS011;64086;43.220;27.878;2024-02-14T08:36:03;4.50;;;2.78;;
75506;SDS011;64086;43.220;27.878;2024-02-14T08:38:30;4.13;;;2.78;;
75506;SDS011;64086;43.220;27.878;2024-02-14T08:40:55;5.75;;;2.70;;
75506;SDS011;64086;43.220;27.878;2024-02-14T08:43:21;3.47;;;2.50;;
75506;SDS011;64086;43.220;27.878;2024-02-14T08:45:49;4.90;;;2.63;;
75506;SDS011;64086;43.220;27.878;2024-02-14T08:48:16;3.70;;;2.42;;
75506;SDS011;64086;43.220;27.878;2024-02-14T08:50:42;4.00;;;2.53;;
75506;SDS011;64086;43.220;27.878;2024-02-14T08:53:08;3.97;;;2.50;;
75506;SDS011;64086;43.220;27.878;2024-02-14T08:55:33;4.45;;;2.35;;
75506;SDS011;64086;43.220;27.878;2024-02-14T08:57:59;5.90;;;2.60;;
75506;SDS011;64086;43.220;27.878;2024-02-14T09:00:25;3.70;;;2.20;;
75506;SDS011;64086;43.220;27.878;2024-02-14T09:02:51;5.15;;;2.55;;
75506;SDS011;64086;43.220;27.878;2024-02-14T09:05:17;3.67;;;2.20;;
75506;SDS011;64086;43.220;27.878;2024-02-14T09:07:44;4.05;;;2.40;;
75506;SDS011;64086;43.220;27.878;2024-02-14T09:10:09;3.20;;;2.10;;
75506;SDS011;64086;43.220;27.878;2024-02-14T09:12:37;3.50;;;2.40;;
75506;SDS011;64086;43.220;27.878;2024-02-14T09:15:04;3.85;;;2.63;;
75506;SDS011;64086;43.220;27.878;2024-02-14T09:17:30;4.55;;;2.60;;
75506;SDS011;64086;43.220;27.878;2024-02-14T09:19:55;6.28;;;2.70;;
75506;SDS011;64086;43.220;27.878;2024-02-14T09:22:21;4.60;;;2.55;;
75506;SDS011;64086;43.220;27.878;2024-02-14T09:24:47;3.67;;;2.35;;
75506;SDS011;64086;43.220;27.878;2024-02-14T09:27:13;3.92;;;2.97;;
75506;SDS011;64086;43.220;27.878;2024-02-14T09:29:39;3.97;;;2.50;;
75506;SDS011;64086;43.220;27.878;2024-02-14T09:32:05;5.82;;;2.90;;
75506;SDS011;64086;43.220;27.878;2024-02-14T09:34:30;6.38;;;2.80;;
75506;SDS011;64086;43.220;27.878;2024-02-14T09:36:56;4.75;;;2.95;;
75506;SDS011;64086;43.220;27.878;2024-02-14T09:39:23;6.57;;;3.05;;
75506;SDS011;64086;43.220;27.878;2024-02-14T09:41:52;6.32;;;3.00;;
75506;SDS011;64086;43.220;27.878;2024-02-14T09:44:20;4.97;;;2.38;;
75506;SDS011;64086;43.220;27.878;2024-02-14T09:46:47;3.50;;;2.30;;
75506;SDS011;64086;43.220;27.878;2024-02-14T09:49:14;3.15;;;2.22;;
75506;SDS011;64086;43.220;27.878;2024-02-14T09:51:41;4.18;;;2.20;;
75506;SDS011;64086;43.220;27.878;2024-02-14T09:54:08;4.90;;;2.38;;
75506;SDS011;64086;43.220;27.878;2024-02-14T09:56:35;3.72;;;2.00;;
75506;SDS011;64086;43.220;27.878;2024-02-14T09:59:01;3.58;;;2.40;;
75506;SDS011;64086;43.220;27.878;2024-02-14T10:01:27;3.30;;;2.20;;
75506;SDS011;64086;43.220;27.878;2024-02-14T10:03:53;3.25;;;2.25;;
75506;SDS011;64086;43.220;27.878;2024-02-14T10:06:19;4.25;;;2.65;;
75506;SDS011;64086;43.220;27.878;2024-02-14T10:08:46;3.38;;;2.17;;
75506;SDS011;64086;43.220;27.878;2024-02-14T10:11:13;3.08;;;2.00;;
75506;SDS011;64086;43.220;27.878;2024-02-14T10:13:40;4.15;;;2.33;;
75506;SDS011;64086;43.220;27.878;2024-02-14T10:16:06;3.50;;;2.30;;
75506;SDS011;64086;43.220;27.878;2024-02-14T10:18:36;3.95;;;2.40;;
75506;SDS011;64086;43.220;27.878;2024-02-14T10:21:02;4.38;;;2.95;;
75506;SDS011;64086;43.220;27.878;2024-02-14T10:23:27;5.70;;;2.97;;
75506;SDS011;64086;43.220;27.878;2024-02-14T10:25:54;3.47;;;2.53;;
75506;SDS011;64086;43.220;27.878;2024-02-14T10:28:21;4.88;;;3.13;;
75506;SDS011;64086;43.220;27.878;2024-02-14T10:30:47;4.63;;;2.75;;
75506;SDS011;64086;43.220;27.878;2024-02-14T10:33:15;4.30;;;2.50;;
75506;SDS011;64086;43.220;27.878;2024-02-14T10:35:46;4.43;;;2.50;;
75506;SDS011;64086;43.220;27.878;2024-02-14T10:38:12;4.00;;;2.47;;
75506;SDS011;64086;43.220;27.878;2024-02-14T10:40:39;4.32;;;2.65;;
75506;SDS011;64086;43.220;27.878;2024-02-14T10:43:07;5.63;;;2.40;;
75506;SDS011;64086;43.220;27.878;2024-02-14T10:45:34;5.88;;;2.40;;
75506;SDS011;64086;43.220;27.878;2024-02-14T10:48:05;3.60;;;2.17;;
75506;SDS011;64086;43.220;27.878;2024-02-14T10:50:35;3.92;;;2.70;;
75506;SDS011;64086;43.220;27.878;2024-02-14T10:53:03;3.72;;;2.40;;
75506;SDS011;64086;43.220;27.878;2024-02-14T10:55:31;5.40;;;2.50;;
75506;SDS011;64086;43.220;27.878;2024-02-14T10:57:58;4.20;;;2.70;;
75506;SDS011;64086;43.220;27.878;2024-02-14T11:00:24;3.70;;;2.67;;
75506;SDS011;64086;43.220;27.878;2024-02-14T11:02:50;3.88;;;2.53;;
75506;SDS011;64086;43.220;27.878;2024-02-14T11:05:17;4.85;;;2.38;;
75506;SDS011;64086;43.220;27.878;2024-02-14T11:07:47;3.55;;;2.33;;
75506;SDS011;64086;43.220;27.878;2024-02-14T11:10:14;4.25;;;2.72;;
75506;SDS011;64086;43.220;27.878;2024-02-14T11:12:41;3.88;;;2.33;;
75506;SDS011;64086;43.220;27.878;2024-02-14T11:15:16;4.05;;;2.40;;
75506;SDS011;64086;43.220;27.878;2024-02-14T11:17:46;4.05;;;2.13;;
75506;SDS011;64086;43.220;27.878;2024-02-14T11:23:20;3.60;;;2.28;;
75506;SDS011;64086;43.220;27.878;2024-02-14T11:25:36;4.07;;;1.90;;
75506;SDS011;64086;43.220;27.878;2024-02-14T11:28:15;7.53;;;2.30;;
75506;SDS011;64086;43.220;27.878;2024-02-14T11:30:42;3.97;;;2.05;;
75506;SDS011;64086;43.220;27.878;2024-02-14T11:33:18;4.82;;;2.65;;
75506;SDS011;64086;43.220;27.878;2024-02-14T11:35:46;4.13;;;2.17;;
75506;SDS011;64086;43.220;27.878;2024-02-14T11:38:15;6.22;;;2.80;;
75506;SDS011;64086;43.220;27.878;2024-02-14T11:40:40;3.10;;;2.17;;
75506;SDS011;64086;43.220;27.878;2024-02-14T11:43:13;4.38;;;2.40;;
75506;SDS011;64086;43.220;27.878;2024-02-14T11:45:39;4.85;;;2.42;;
75506;SDS011;64086;43.220;27.878;2024-02-14T11:48:08;3.90;;;2.45;;
75506;SDS011;64086;43.220;27.878;2024-02-14T11:50:38;5.82;;;2.55;;
75506;SDS011;64086;43.220;27.878;2024-02-14T11:53:05;3.78;;;2.30;;
75506;SDS011;64086;43.220;27.878;2024-02-14T11:55:34;3.13;;;1.90;;
75506;SDS011;64086;43.220;27.878;2024-02-14T11:58:01;4.75;;;2.40;;
75506;SDS011;64086;43.220;27.878;2024-02-14T12:00:27;3.38;;;1.98;;
75506;SDS011;64086;43.220;27.878;2024-02-14T12:02:53;4.57;;;2.00;;
75506;SDS011;64086;43.220;27.878;2024-02-14T12:05:18;3.78;;;1.90;;
75506;SDS011;64086;43.220;27.878;2024-02-14T12:07:44;3.55;;;1.95;;
75506;SDS011;64086;43.220;27.878;2024-02-14T12:10:10;3.80;;;2.30;;
75506;SDS011;64086;43.220;27.878;2024-02-14T12:12:37;3.53;;;1.98;;
75506;SDS011;64086;43.220;27.878;2024-02-14T12:15:03;2.60;;;1.55;;
75506;SDS011;64086;43.220;27.878;2024-02-14T12:17:31;2.58;;;1.30;;
75506;SDS011;64086;43.220;27.878;2024-02-14T12:20:09;3.30;;;1.63;;
75506;SDS011;64086;43.220;27.878;2024-02-14T12:22:36;2.67;;;1.40;;
75506;SDS011;64086;43.220;27.878;2024-02-14T12:25:02;2.85;;;1.75;;
75506;SDS011;64086;43.220;27.878;2024-02-14T12:27:33;3.42;;;1.73;;
75506;SDS011;64086;43.220;27.878;2024-02-14T12:29:59;3.33;;;1.90;;
75506;SDS011;64086;43.220;27.878;2024-02-14T12:32:27;2.50;;;1.70;;
75506;SDS011;64086;43.220;27.878;2024-02-14T12:34:55;3.55;;;1.95;;
75506;SDS011;64086;43.220;27.878;2024-02-14T12:37:22;3.30;;;2.03;;
75506;SDS011;64086;43.220;27.878;2024-02-14T12:39:48;4.90;;;2.22;;
75506;SDS011;64086;43.220;27.878;2024-02-14T12:42:14;5.88;;;2.00;;
75506;SDS011;64086;43.220;27.878;2024-02-14T12:44:40;4.13;;;2.30;;
75506;SDS011;64086;43.220;27.878;2024-02-14T12:47:05;3.72;;;2.15;;
75506;SDS011;64086;43.220;27.878;2024-02-14T12:49:33;3.75;;;2.22;;
75506;SDS011;64086;43.220;27.878;2024-02-14T12:51:59;3.28;;;1.90;;
75506;SDS011;64086;43.220;27.878;2024-02-14T12:54:24;3.72;;;2.20;;
75506;SDS011;64086;43.220;27.878;2024-02-14T12:56:50;4.90;;;2.70;;
75506;SDS011;64086;43.220;27.878;2024-02-14T12:59:17;3.83;;;2.25;;
75506;SDS011;64086;43.220;27.878;2024-02-14T13:01:43;4.65;;;2.50;;
75506;SDS011;64086;43.220;27.878;2024-02-14T13:04:09;5.72;;;2.33;;
75506;SDS011;64086;43.220;27.878;2024-02-14T13:06:35;3.05;;;2.25;;
75506;SDS011;64086;43.220;27.878;2024-02-14T13:09:02;3.10;;;2.15;;
75506;SDS011;64086;43.220;27.878;2024-02-14T13:11:30;4.15;;;2.10;;
75506;SDS011;64086;43.220;27.878;2024-02-14T13:13:57;3.95;;;2.50;;
75506;SDS011;64086;43.220;27.878;2024-02-14T13:16:22;3.20;;;2.13;;
75506;SDS011;64086;43.220;27.878;2024-02-14T13:18:48;3.28;;;1.75;;
75506;SDS011;64086;43.220;27.878;2024-02-14T13:21:13;4.13;;;2.10;;
75506;SDS011;64086;43.220;27.878;2024-02-14T13:23:39;4.07;;;2.15;;
75506;SDS011;64086;43.220;27.878;2024-02-14T13:26:05;5.80;;;2.30;;
75506;SDS011;64086;43.220;27.878;2024-02-14T13:28:32;14.15;;;8.88;;
75506;SDS011;64086;43.220;27.878;2024-02-14T13:30:58;5.47;;;2.60;;
75506;SDS011;64086;43.220;27.878;2024-02-14T13:33:24;3.78;;;2.25;;
75506;SDS011;64086;43.220;27.878;2024-02-14T13:35:49;4.47;;;2.75;;
75506;SDS011;64086;43.220;27.878;2024-02-14T13:38:15;3.90;;;2.50;;
75506;SDS011;64086;43.220;27.878;2024-02-14T13:40:42;3.80;;;2.47;;
75506;SDS011;64086;43.220;27.878;2024-02-14T13:43:08;5.00;;;2.75;;
75506;SDS011;64086;43.220;27.878;2024-02-14T13:45:41;6.53;;;2.95;;
75506;SDS011;64086;43.220;27.878;2024-02-14T13:48:10;4.35;;;2.85;;
75506;SDS011;64086;43.220;27.878;2024-02-14T13:50:36;4.20;;;2.83;;
75506;SDS011;64086;43.220;27.878;2024-02-14T13:53:03;4.03;;;2.85;;
75506;SDS011;64086;43.220;27.878;2024-02-14T13:55:29;5.18;;;2.92;;
75506;SDS011;64086;43.220;27.878;2024-02-14T13:57:54;4.38;;;2.80;;
75506;SDS011;64086;43.220;27.878;2024-02-14T14:00:20;5.63;;;3.30;;
75506;SDS011;64086;43.220;27.878;2024-02-14T14:02:45;3.40;;;2.45;;
75506;SDS011;64086;43.220;27.878;2024-02-14T14:05:11;4.18;;;3.10;;
75506;SDS011;64086;43.220;27.878;2024-02-14T14:07:40;3.53;;;2.67;;
75506;SDS011;64086;43.220;27.878;2024-02-14T14:10:06;3.70;;;2.92;;
75506;SDS011;64086;43.220;27.878;2024-02-14T14:12:32;3.63;;;2.65;;
75506;SDS011;64086;43.220;27.878;2024-02-14T14:14:58;4.05;;;2.72;;
75506;SDS011;64086;43.220;27.878;2024-02-14T14:17:24;3.92;;;2.90;;
75506;SDS011;64086;43.220;27.878;2024-02-14T14:19:50;3.58;;;2.60;;
75506;SDS011;64086;43.220;27.878;2024-02-14T14:22:16;4.45;;;2.80;;
75506;SDS011;64086;43.220;27.878;2024-02-14T14:24:41;6.53;;;3.20;;
75506;SDS011;64086;43.220;27.878;2024-02-14T14:27:07;5.90;;;3.05;;
75506;SDS011;64086;43.220;27.878;2024-02-14T14:29:42;3.72;;;2.78;;
75506;SDS011;64086;43.220;27.878;2024-02-14T14:32:07;4.72;;;3.00;;